Wakefield, MI (49968)

4:13 AM CDT on June 30, 2015 (GMT -0500)
Sunday Lake | | Change Station
CLOSE
Current Station
Personal Weather Station
Location: Wakefield, MI
Elevation: 1600 ft
Nearby Weather Stations

Elev 1600 ft 46.48 °N, 89.95 °W | Updated 3 seconds ago

Overcast
Overcast
53.2 °F
Feels Like 53.2 °F
N
2.0
Wind Variable Wind from North
Gusts 2.0 mph

Today
High -- | Low -- °F
--% Chance of Precip.
Yesterday
High -- | Low -- °F
Precip. -- in
5:10 AM 8:56 PM
Waxing Gibbous, 96% visible
Pressure 29.84 in
Visibility 1.2 miles
Clouds Overcast 200 ft
Dew Point 53 °F
Humidity 98%
Rainfall in
Snow Depth Not available.
UV 0.0 out of 12
Pollen 5.40 out of 12
Air Quality Not available.
Flu Activity Sporadic
METAR KIWD 300635Z AUTO 04003KT 1 1/4SM OVC002 14/14 A2984 RMK AO1

More Conditions Fewer Conditions

Pressure 29.84 in
Visibility 1.2 miles
Clouds Overcast 200 ft
Dew Point 53 °F
Humidity 98%
Rainfall in
Snow Depth Not available.
UV 0.0 out of 12
Pollen 5.40 out of 12
Air Quality Not available.
Flu Activity Sporadic
METAR KIWD 300635Z AUTO 04003KT 1 1/4SM OVC002 14/14 A2984 RMK AO1

More Conditions Fewer Conditions

10-Day Weather Forecast

×

Almanac

Astronomy

Jun. 30, 2015 Rise Set
Actual Time
Civil Twilight
Nautical Twilight
Astronomical Twilight
Moon
Length of Visible Light
Length of Day
Tomorrow will be .
, % of the Moon is Illuminated

Today's Extremes

State Highs State Lows

Community

WunderPhotos

Upload Photos

1,833,983 photos uploaded!

WunderBlogs® & News

Nearby

Air Quality

  Air Quality AQ Index Pollutant
Not available.

Snow Depth

Station Depth Elevation

Earthquake Activity

City Distance Mag. Time & Date
Minimum magnitude displayed is 2.5.

Coastal Water Temperatures

Place Temperature

Stations

Nearby Weather Stations

Station Location Temp. Windchill Dew Point Humidity Wind Precip. Elev Updated Type